Time;durP1;ratioP1;P1;durP2;ratioP2;P2;SDS_P1;SDS_P2;PMS_P1;PMS_P2;Temp;Humidity;BMP_temperature;BMP_pressure;BME280_temperature;BME280_humidity;BME280_pressure;Samples;Min_cycle;Max_cycle;Signal;HPM_P1;HPM_P2
2022/07/31 00:01:00;;;;;;;2.38;1.20;;;;;;;18.01;65.19;96159.22;4992040;28;24417;-76
2022/07/31 00:03:27;;;;;;;2.53;1.70;;;;;;;18.10;64.88;96155.81;4992047;28;24471;-74
2022/07/31 00:05:53;;;;;;;2.70;1.30;;;;;;;17.97;64.52;96154.38;4991739;28;24967;-74
2022/07/31 00:08:20;;;;;;;4.43;1.40;;;;;;;17.88;64.79;96142.91;4992104;28;24480;-74
2022/07/31 00:10:46;;;;;;;1.90;1.40;;;;;;;17.86;65.30;96147.44;4992086;28;24432;-74
2022/07/31 00:13:13;;;;;;;1.42;1.33;;;;;;;17.87;65.84;96151.72;4991975;28;24429;-75
2022/07/31 00:15:40;;;;;;;1.88;1.35;;;;;;;17.85;66.43;96153.66;4992241;28;24424;-75
2022/07/31 00:18:08;;;;;;;3.83;1.50;;;;;;;17.79;67.08;96143.69;4995515;28;24471;-75
2022/07/31 00:20:34;;;;;;;3.33;1.58;;;;;;;17.73;68.17;96146.81;4995132;28;24464;-75
2022/07/31 00:23:01;;;;;;;3.30;1.58;;;;;;;17.76;68.29;96141.31;4996203;28;24520;-75
2022/07/31 00:25:27;;;;;;;3.33;1.55;;;;;;;17.77;67.55;96140.38;4995261;28;24456;-74
2022/07/31 00:27:54;;;;;;;3.53;1.80;;;;;;;17.72;67.59;96142.53;4995340;28;24831;-75
2022/07/31 00:30:20;;;;;;;2.20;1.37;;;;;;;17.54;68.12;96144.91;4995016;28;25030;-74
2022/07/31 00:32:48;;;;;;;2.92;1.67;;;;;;;17.45;68.37;96141.28;4994968;28;24424;-74
2022/07/31 00:35:14;;;;;;;3.40;1.40;;;;;;;17.50;67.43;96138.28;4995559;28;24483;-75
2022/07/31 00:37:43;;;;;;;3.80;1.30;;;;;;;17.59;66.21;96130.47;4994872;28;24937;-76
2022/07/31 00:40:12;;;;;;;1.93;1.30;;;;;;;17.51;66.40;96140.78;4995206;28;24516;-76
2022/07/31 00:42:38;;;;;;;2.33;1.30;;;;;;;17.55;65.81;96136.13;4995182;28;24429;-75
2022/07/31 00:45:06;;;;;;;1.97;1.30;;;;;;;17.53;65.95;96133.59;4995519;28;24533;-74
2022/07/31 00:47:32;;;;;;;1.63;1.53;;;;;;;17.54;65.91;96137.06;4995124;28;24428;-75
2022/07/31 00:50:00;;;;;;;1.80;1.60;;;;;;;17.54;65.67;96135.28;4995104;28;24417;-75
2022/07/31 00:52:27;;;;;;;3.00;1.70;;;;;;;17.56;65.87;96135.97;4994989;28;24468;-75
2022/07/31 00:54:53;;;;;;;5.20;1.70;;;;;;;17.54;65.74;96134.44;4994948;28;24456;-75
2022/07/31 00:57:19;;;;;;;1.55;1.45;;;;;;;17.55;66.22;96134.31;4994909;28;24421;-75
2022/07/31 00:59:46;;;;;;;2.70;1.63;;;;;;;17.54;66.44;96135.28;4994789;28;24417;-75
2022/07/31 01:02:13;;;;;;;2.08;1.55;;;;;;;17.46;67.04;96132.47;4994838;28;24424;-75
2022/07/31 01:04:39;;;;;;;3.47;1.70;;;;;;;17.47;67.32;96135.94;4994692;28;24425;-74
2022/07/31 01:07:07;;;;;;;3.42;1.65;;;;;;;17.44;67.55;96137.03;4994535;28;24532;-76
2022/07/31 01:09:34;;;;;;;2.88;1.50;;;;;;;17.32;68.06;96133.66;4994618;28;24454;-74
2022/07/31 01:12:03;;;;;;;2.75;1.40;;;;;;;17.14;68.96;96130.78;4994517;28;24476;-74
2022/07/31 01:14:35;;;;;;;2.83;1.50;;;;;;;17.07;69.01;96136.66;4994115;28;25012;-74
2022/07/31 01:17:03;;;;;;;2.50;1.50;;;;;;;17.07;68.80;96140.09;4994510;28;24421;-74
2022/07/31 01:19:34;;;;;;;2.20;1.52;;;;;;;17.04;68.81;96140.34;4994172;28;24505;-75
2022/07/31 01:22:28;;;;;;;1.95;1.33;;;;;;;16.97;69.13;96133.13;4995266;28;24507;-75
2022/07/31 01:25:07;;;;;;;2.67;1.52;;;;;;;17.08;68.55;96133.91;4994375;28;24432;-75
2022/07/31 01:27:50;;;;;;;2.10;1.33;;;;;;;16.92;69.80;96136.97;4993567;28;24418;-75
2022/07/31 01:30:19;;;;;;;2.30;1.30;;;;;;;16.86;70.00;96140.06;4994392;28;24420;-75
2022/07/31 01:32:49;;;;;;;1.52;1.30;;;;;;;16.78;70.63;96137.25;4994602;28;24506;-75
2022/07/31 01:35:19;;;;;;;2.50;1.40;;;;;;;16.77;70.96;96134.78;4994236;28;24810;-75
2022/07/31 01:37:52;;;;;;;2.55;1.58;;;;;;;16.79;70.90;96136.28;4994446;28;24405;-75
2022/07/31 01:40:27;;;;;;;1.88;1.30;;;;;;;16.79;71.02;96136.28;4994527;28;24432;-74
2022/07/31 01:42:59;;;;;;;2.23;1.83;;;;;;;16.72;71.02;96135.09;4994087;28;24779;-74
2022/07/31 01:45:28;;;;;;;1.70;1.60;;;;;;;16.76;70.84;96135.72;4993704;28;24463;-75
2022/07/31 01:47:57;;;;;;;1.75;1.20;;;;;;;16.74;71.07;96133.22;4993824;28;24429;-74
2022/07/31 01:50:25;;;;;;;2.33;1.40;;;;;;;16.77;70.58;96135.59;4993819;28;24425;-75
2022/07/31 01:52:53;;;;;;;2.55;1.50;;;;;;;16.77;70.67;96130.38;4993831;28;24421;-75
2022/07/31 01:55:20;;;;;;;2.28;1.40;;;;;;;16.78;70.81;96132.03;4993694;28;24484;-75
2022/07/31 01:57:49;;;;;;;1.70;1.45;;;;;;;16.77;71.10;96129.53;4993697;28;24425;-75
2022/07/31 02:00:17;;;;;;;1.48;1.30;;;;;;;16.73;71.14;96128.94;4993521;28;24491;-75
2022/07/31 02:02:48;;;;;;;1.70;1.50;;;;;;;16.67;71.63;96127.63;4993519;28;24500;-74
2022/07/31 02:05:16;;;;;;;2.50;1.42;;;;;;;16.57;72.34;96131.94;4993141;28;24950;-75
2022/07/31 02:07:45;;;;;;;2.13;1.42;;;;;;;16.59;72.20;96130.03;4993456;28;24428;-75
2022/07/31 02:10:14;;;;;;;1.65;1.38;;;;;;;16.57;71.95;96131.13;4993432;28;24440;-75
2022/07/31 02:12:42;;;;;;;2.10;1.70;;;;;;;16.56;72.10;96137.31;4993080;28;24973;-74
2022/07/31 02:15:12;;;;;;;1.90;1.20;;;;;;;16.58;72.15;96143.25;4993367;28;24420;-75
2022/07/31 02:17:39;;;;;;;2.22;1.40;;;;;;;16.58;71.76;96141.47;4993263;28;24471;-75
2022/07/31 02:20:11;;;;;;;1.67;1.33;;;;;;;16.54;72.40;96139.19;4993219;28;24424;-75
2022/07/31 02:22:37;;;;;;;1.80;1.52;;;;;;;16.63;71.74;96138.47;4993250;28;24417;-74
2022/07/31 02:25:07;;;;;;;2.33;1.60;;;;;;;16.36;73.18;96144.97;4993099;28;24500;-75
2022/07/31 02:27:36;;;;;;;3.20;1.65;;;;;;;16.39;72.72;96129.06;4993060;28;24471;-75
2022/07/31 02:30:04;;;;;;;1.70;1.30;;;;;;;16.15;74.29;96131.00;4992983;28;24425;-76
2022/07/31 02:32:32;;;;;;;2.10;1.60;;;;;;;16.10;73.75;96139.22;4992948;28;24421;-75
2022/07/31 02:35:01;;;;;;;3.08;1.67;;;;;;;15.97;74.92;96130.66;4993003;28;24421;-76
2022/07/31 02:37:31;;;;;;;1.85;1.50;;;;;;;15.95;75.04;96127.34;4993051;28;24421;-75
2022/07/31 02:39:59;;;;;;;1.90;1.60;;;;;;;15.95;74.41;96125.56;4992999;28;24467;-74
2022/07/31 02:42:27;;;;;;;2.67;1.70;;;;;;;16.08;73.88;96120.19;4992832;28;24460;-74
2022/07/31 02:44:55;;;;;;;1.80;1.60;;;;;;;15.96;74.25;96124.59;4993067;28;24432;-75
2022/07/31 02:47:22;;;;;;;2.05;1.30;;;;;;;15.90;74.71;96124.25;4993145;28;24440;-74
2022/07/31 02:49:49;;;;;;;2.05;1.33;;;;;;;15.83;75.49;96126.50;4992816;28;24966;-75
2022/07/31 02:52:16;;;;;;;1.73;1.40;;;;;;;15.84;75.01;96124.75;4993389;28;24508;-76
2022/07/31 02:54:45;;;;;;;3.38;1.42;;;;;;;15.75;75.78;96123.66;4993159;28;25016;-75
2022/07/31 02:57:11;;;;;;;1.40;1.30;;;;;;;15.67;76.36;96124.25;4993140;28;24420;-75
2022/07/31 02:59:39;;;;;;;1.98;1.55;;;;;;;15.72;75.53;96116.94;4993160;28;24421;-75
2022/07/31 03:02:05;;;;;;;3.08;1.67;;;;;;;15.77;75.95;96113.13;4993197;28;24421;-74
2022/07/31 03:04:32;;;;;;;2.75;1.63;;;;;;;15.67;75.96;96119.03;4993042;28;24424;-75
2022/07/31 03:06:59;;;;;;;3.55;1.90;;;;;;;15.58;76.34;96122.34;4992965;28;24444;-76
2022/07/31 03:09:25;;;;;;;2.40;1.73;;;;;;;15.50;77.15;96114.28;4993162;28;24432;-74
2022/07/31 03:11:53;;;;;;;3.70;1.80;;;;;;;15.35;77.75;96107.59;4993185;28;24467;-75
2022/07/31 03:14:22;;;;;;;4.05;1.52;;;;;;;15.36;77.87;96114.50;4993265;28;24417;-75
2022/07/31 03:16:51;;;;;;;2.88;1.70;;;;;;;15.33;78.42;96112.94;4993160;28;24429;-75
2022/07/31 03:19:19;;;;;;;2.78;1.77;;;;;;;15.23;78.68;96104.16;4993343;28;24428;-74
2022/07/31 03:21:46;;;;;;;2.30;1.58;;;;;;;15.22;79.27;96115.53;4993150;28;24413;-75
2022/07/31 03:24:13;;;;;;;2.60;1.92;;;;;;;15.15;79.69;96114.34;4992731;28;24823;-75
2022/07/31 03:26:40;;;;;;;4.28;1.85;;;;;;;15.20;79.31;96114.81;4992513;28;24449;-75
2022/07/31 03:29:07;;;;;;;2.83;2.33;;;;;;;15.34;78.45;96109.38;4992279;28;24436;-75
2022/07/31 03:31:34;;;;;;;4.82;2.00;;;;;;;15.32;78.66;96110.47;4992284;28;24472;-74
2022/07/31 03:34:01;;;;;;;3.67;2.10;;;;;;;15.17;80.27;96115.91;4992455;28;24452;-75
2022/07/31 03:36:29;;;;;;;3.40;2.15;;;;;;;15.02;81.26;96117.06;4992349;28;24802;-75
2022/07/31 03:38:55;;;;;;;5.65;2.95;;;;;;;15.17;80.51;96115.91;4992495;28;24437;-74
2022/07/31 03:41:22;;;;;;;3.80;2.28;;;;;;;15.22;80.10;96118.97;4992402;28;24822;-75
2022/07/31 03:43:49;;;;;;;2.85;2.10;;;;;;;15.25;79.87;96121.38;4991976;28;24471;-75
2022/07/31 03:46:20;;;;;;;3.20;2.13;;;;;;;15.25;79.54;96125.75;4991276;28;24467;-75
2022/07/31 03:48:50;;;;;;;2.38;1.90;;;;;;;15.26;79.47;96130.03;4991123;28;24409;-75
2022/07/31 03:51:17;;;;;;;5.68;1.80;;;;;;;15.36;78.29;96127.56;4992861;28;24429;-75
2022/07/31 03:53:46;;;;;;;3.13;1.90;;;;;;;15.33;78.71;96126.00;4996108;28;24417;-74
2022/07/31 03:56:13;;;;;;;2.75;1.65;;;;;;;15.16;80.16;96134.25;4996026;28;24437;-74
2022/07/31 03:58:39;;;;;;;3.28;2.00;;;;;;;15.12;80.88;96122.41;4996380;28;24437;-75
2022/07/31 04:01:06;;;;;;;5.25;1.85;;;;;;;15.10;80.86;96119.91;4995839;28;24416;-75
2022/07/31 04:03:34;;;;;;;5.25;2.20;;;;;;;15.10;80.90;96126.91;4995846;28;24443;-73
2022/07/31 04:06:01;;;;;;;2.40;1.50;;;;;;;15.12;80.91;96125.00;4995731;28;24429;-75
2022/07/31 04:08:27;;;;;;;4.95;1.70;;;;;;;15.09;80.87;96125.22;4995322;28;24839;-74
2022/07/31 04:10:53;;;;;;;2.80;1.73;;;;;;;15.13;80.63;96127.53;4995690;28;24425;-75
2022/07/31 04:13:20;;;;;;;2.42;1.55;;;;;;;14.99;81.72;96122.50;4995223;28;24947;-75
2022/07/31 04:15:46;;;;;;;5.35;1.80;;;;;;;14.99;81.85;96119.91;4995153;28;24977;-75
2022/07/31 04:18:13;;;;;;;2.63;1.58;;;;;;;15.08;81.41;96116.56;4995464;28;24818;-76
2022/07/31 04:20:40;;;;;;;3.27;1.80;;;;;;;15.30;79.65;96109.75;4995120;28;24433;-75
2022/07/31 04:23:07;;;;;;;1.65;1.55;;;;;;;15.13;81.24;96118.84;4995441;28;24428;-74
2022/07/31 04:25:33;;;;;;;2.67;1.85;;;;;;;15.09;81.45;96126.09;4995296;28;24429;-75
2022/07/31 04:28:00;;;;;;;2.65;1.73;;;;;;;14.99;82.14;96123.31;4995205;28;24471;-75
2022/07/31 04:30:26;;;;;;;2.15;1.50;;;;;;;14.89;83.63;96138.00;4995208;28;24425;-75
2022/07/31 04:32:53;;;;;;;2.47;1.55;;;;;;;15.09;82.98;96136.53;4995169;28;24425;-75
2022/07/31 04:35:20;;;;;;;1.90;1.60;;;;;;;15.24;83.41;96127.53;4995035;28;24436;-75
2022/07/31 04:37:48;;;;;;;2.65;1.55;;;;;;;15.40;81.70;96128.97;4995165;28;24450;-75
2022/07/31 04:40:15;;;;;;;2.97;1.77;;;;;;;15.40;81.92;96135.03;4994988;28;24471;-76
2022/07/31 04:42:42;;;;;;;1.90;1.60;;;;;;;15.33;82.84;96133.84;4994968;28;24799;-76
2022/07/31 04:45:09;;;;;;;1.95;1.55;;;;;;;15.40;82.04;96137.63;4994787;28;24441;-75
2022/07/31 04:47:37;;;;;;;2.38;1.90;;;;;;;15.51;83.67;96133.38;4994834;28;24441;-73
2022/07/31 04:50:04;;;;;;;3.90;2.30;;;;;;;15.60;84.05;96137.88;4994793;28;24425;-75
2022/07/31 04:52:31;;;;;;;2.78;1.90;;;;;;;15.56;86.91;96136.47;4994837;28;24428;-76
2022/07/31 04:54:59;;;;;;;5.27;2.10;;;;;;;15.76;87.21;96137.56;4994691;28;24433;-76
2022/07/31 04:57:25;;;;;;;2.97;2.33;;;;;;;15.83;86.18;96136.13;4994744;28;24417;-76
2022/07/31 04:59:52;;;;;;;3.47;2.08;;;;;;;15.75;85.89;96141.94;4994404;28;24957;-76
2022/07/31 05:02:18;;;;;;;2.00;1.80;;;;;;;15.92;85.08;96141.47;4994361;28;24942;-75
2022/07/31 05:04:45;;;;;;;2.42;1.77;;;;;;;15.92;84.36;96141.47;4994531;28;24484;-76
2022/07/31 05:07:11;;;;;;;7.65;2.20;;;;;;;15.95;85.11;96143.03;4994499;28;24452;-75
2022/07/31 05:09:38;;;;;;;2.40;1.87;;;;;;;15.98;86.43;96142.75;4994555;28;24475;-76
2022/07/31 05:12:07;;;;;;;2.08;1.80;;;;;;;16.05;86.47;96136.09;4994516;28;24432;-76
2022/07/31 05:14:33;;;;;;;2.40;1.87;;;;;;;16.10;85.82;96136.59;4994357;28;24428;-76
2022/07/31 05:16:59;;;;;;;1.85;1.65;;;;;;;16.06;85.22;96147.41;4994093;28;25070;-76
2022/07/31 05:19:28;;;;;;;2.40;1.90;;;;;;;16.04;84.85;96136.25;4994028;28;24424;-76
2022/07/31 05:21:55;;;;;;;2.47;1.80;;;;;;;16.23;83.83;96139.06;4994332;28;24472;-76
2022/07/31 05:24:23;;;;;;;3.58;1.67;;;;;;;16.25;85.20;96137.16;4994187;28;24436;-76
2022/07/31 05:26:49;;;;;;;2.60;1.50;;;;;;;16.24;85.63;96132.03;4993822;28;25014;-75
2022/07/31 05:29:17;;;;;;;2.45;1.77;;;;;;;16.32;85.74;96132.28;4993923;28;24985;-76
2022/07/31 05:31:44;;;;;;;2.30;1.75;;;;;;;16.33;84.83;96133.94;4994143;28;24429;-76
2022/07/31 05:34:10;;;;;;;2.35;1.77;;;;;;;16.44;84.73;96134.72;4994106;28;24432;-76
2022/07/31 05:36:36;;;;;;;2.30;1.60;;;;;;;16.47;85.20;96127.59;4993995;28;24417;-76
2022/07/31 05:39:03;;;;;;;3.60;1.90;;;;;;;16.51;84.48;96129.00;4993986;28;24421;-77
2022/07/31 05:41:32;;;;;;;2.03;1.60;;;;;;;16.55;82.39;96128.63;4993869;28;25005;-77
2022/07/31 05:43:58;;;;;;;1.75;1.60;;;;;;;16.69;81.86;96136.19;4993636;28;24990;-76
2022/07/31 05:46:26;;;;;;;1.98;1.50;;;;;;;16.70;79.74;96124.78;4993611;28;24437;-77
2022/07/31 05:48:52;;;;;;;2.80;1.70;;;;;;;16.81;77.30;96130.94;4993516;28;24993;-77
2022/07/31 05:51:19;;;;;;;2.25;1.73;;;;;;;16.87;74.71;96126.06;4993821;28;24484;-77
2022/07/31 05:53:45;;;;;;;1.87;1.70;;;;;;;16.92;74.33;96125.66;4993876;28;24517;-77
2022/07/31 05:56:12;;;;;;;3.00;1.60;;;;;;;17.08;73.91;96133.06;4993391;28;24842;-77
2022/07/31 05:58:38;;;;;;;1.63;1.40;;;;;;;17.17;73.71;96130.53;4993419;28;24958;-78
2022/07/31 06:01:05;;;;;;;3.83;1.70;;;;;;;17.25;73.48;96132.50;4993665;28;24471;-77
2022/07/31 06:03:35;;;;;;;3.17;1.70;;;;;;;17.15;72.54;96135.03;4993586;28;24426;-76
2022/07/31 06:06:03;;;;;;;5.90;1.70;;;;;;;17.23;72.87;96141.44;4993554;28;24439;-76
2022/07/31 06:08:30;;;;;;;2.33;1.50;;;;;;;17.31;72.12;96141.63;4993387;28;24445;-76
2022/07/31 06:10:57;;;;;;;3.92;1.73;;;;;;;17.31;72.23;96137.19;4993196;28;24977;-77
2022/07/31 06:13:25;;;;;;;2.85;1.50;;;;;;;17.47;71.62;96136.75;4992981;28;24515;-77
2022/07/31 06:15:52;;;;;;;2.55;1.55;;;;;;;17.56;71.75;96141.22;4993315;28;24433;-77
2022/07/31 06:18:18;;;;;;;2.20;1.60;;;;;;;17.53;71.38;96153.72;4993335;28;24429;-77
2022/07/31 06:20:46;;;;;;;4.63;1.63;;;;;;;17.60;71.21;96141.78;4993304;28;24432;-77
2022/07/31 06:23:12;;;;;;;3.10;1.60;;;;;;;17.63;71.48;96139.72;4993268;28;24771;-75
2022/07/31 06:29:00;;;;;;;1.85;1.42;;;;;;;17.69;71.31;96148.00;4992726;28;24488;-76
2022/07/31 06:31:27;;;;;;;1.60;1.30;;;;;;;17.81;70.30;96154.88;4993074;28;24432;-75
2022/07/31 06:33:53;;;;;;;2.03;1.50;;;;;;;17.89;70.32;96145.38;4993130;28;24431;-75
2022/07/31 06:36:21;;;;;;;2.67;1.73;;;;;;;18.00;71.28;96146.25;4992941;28;24433;-75
2022/07/31 06:38:47;;;;;;;2.03;1.55;;;;;;;18.10;70.07;96155.81;4992882;28;24475;-74
2022/07/31 06:41:43;;;;;;;2.72;1.50;;;;;;;18.13;70.16;96155.56;4992867;28;24791;-73
2022/07/31 06:44:00;;;;;;;2.70;1.77;;;;;;;18.14;69.94;96149.34;4992429;28;24798;-74
2022/07/31 06:46:27;;;;;;;3.17;1.50;;;;;;;18.33;70.14;96151.19;4992603;28;24441;-73
2022/07/31 06:48:53;;;;;;;2.65;1.55;;;;;;;18.50;68.19;96149.72;4992719;28;24803;-73
2022/07/31 06:51:21;;;;;;;6.13;2.10;;;;;;;18.65;68.72;96151.91;4992358;28;24525;-74
2022/07/31 06:53:47;;;;;;;2.80;1.50;;;;;;;18.75;67.97;96152.78;4992681;28;24442;-73
2022/07/31 06:56:14;;;;;;;2.35;1.73;;;;;;;18.96;66.74;96147.41;4992555;28;24433;-74
2022/07/31 06:58:40;;;;;;;3.60;1.80;;;;;;;19.16;66.29;96142.97;4992560;28;24436;-74
2022/07/31 07:01:07;;;;;;;2.25;1.80;;;;;;;19.27;65.36;96142.81;4992614;28;24799;-74
2022/07/31 07:03:33;;;;;;;2.10;1.70;;;;;;;19.29;65.42;96146.16;4992573;28;24424;-73
2022/07/31 07:06:00;;;;;;;4.38;2.20;;;;;;;19.33;65.27;96148.34;4992472;28;24501;-73
2022/07/31 07:08:27;;;;;;;2.23;1.67;;;;;;;19.37;64.59;96141.00;4992156;28;24525;-73
2022/07/31 07:10:54;;;;;;;2.65;1.60;;;;;;;19.50;64.21;96136.25;4992536;28;24421;-73
2022/07/31 07:13:20;;;;;;;3.03;1.58;;;;;;;19.82;63.37;96135.91;4992505;28;24483;-73
2022/07/31 07:15:47;;;;;;;1.63;1.45;;;;;;;20.21;61.46;96135.75;4992303;28;24432;-73
2022/07/31 07:18:14;;;;;;;2.53;1.70;;;;;;;20.30;61.01;96132.22;4992464;28;24476;-73
2022/07/31 07:20:40;;;;;;;2.97;1.70;;;;;;;20.36;61.79;96136.09;4992343;28;24608;-72
2022/07/31 07:23:07;;;;;;;2.78;1.60;;;;;;;20.69;59.83;96134.66;5034435;22;24592;-71
2022/07/31 07:25:34;;;;;;;2.80;1.65;;;;;;;20.72;59.71;96136.13;5008761;28;24432;-71
2022/07/31 07:28:01;;;;;;;2.40;1.60;;;;;;;21.11;58.09;96128.75;5005286;28;24479;-71
2022/07/31 07:30:27;;;;;;;3.30;1.63;;;;;;;21.35;57.17;96133.41;5013018;28;24439;-73
2022/07/31 07:32:54;;;;;;;1.38;1.27;;;;;;;21.45;55.43;96133.31;5011260;28;24483;-73
2022/07/31 07:35:21;;;;;;;2.70;1.77;;;;;;;21.52;53.45;96131.72;4986682;28;24980;-73
2022/07/31 07:37:48;;;;;;;3.03;1.67;;;;;;;21.57;54.97;96136.50;4983294;28;24536;-70
2022/07/31 07:40:15;;;;;;;1.80;1.40;;;;;;;21.66;54.72;96125.88;4992607;28;24452;-72
2022/07/31 07:42:43;;;;;;;4.45;1.70;;;;;;;21.79;52.53;96125.44;4984310;28;24530;-72
2022/07/31 07:45:10;;;;;;;3.23;1.50;;;;;;;21.89;53.32;96126.16;4989859;28;24998;-76
2022/07/31 07:47:37;;;;;;;1.48;1.20;;;;;;;22.05;53.11;96130.66;4988217;28;24456;-73
2022/07/31 07:50:06;;;;;;;4.47;1.58;;;;;;;22.08;51.63;96130.34;4977120;28;24521;-73
2022/07/31 07:52:33;;;;;;;2.20;1.27;;;;;;;22.08;52.01;96124.25;4987787;28;24440;-73
2022/07/31 07:54:59;;;;;;;4.38;1.60;;;;;;;22.15;51.26;96131.41;4985772;28;24445;-73
2022/07/31 07:57:26;;;;;;;2.65;1.40;;;;;;;22.21;51.83;96122.00;4985157;28;24849;-71
2022/07/31 07:59:54;;;;;;;1.92;1.38;;;;;;;22.35;54.03;96124.03;4984964;28;24484;-71
2022/07/31 08:02:20;;;;;;;16.00;3.40;;;;;;;22.67;52.37;96119.84;4992957;28;24433;-71
2022/07/31 08:04:47;;;;;;;3.00;1.58;;;;;;;23.17;51.67;96113.59;4986012;28;24444;-71
2022/07/31 08:07:13;;;;;;;8.30;2.10;;;;;;;23.49;48.90;96109.28;4987695;28;25037;-71
2022/07/31 08:09:40;;;;;;;2.47;1.77;;;;;;;23.73;48.40;96111.06;4982195;28;24997;-72
2022/07/31 08:12:06;;;;;;;2.45;1.25;;;;;;;24.17;48.24;96113.22;4985258;28;24436;-71
2022/07/31 08:14:33;;;;;;;26.27;3.95;;;;;;;24.57;46.57;96109.56;4982244;28;24441;-72
2022/07/31 08:17:01;;;;;;;8.75;2.10;;;;;;;24.97;46.85;96112.97;4986480;28;24437;-71
2022/07/31 08:19:27;;;;;;;2.13;1.42;;;;;;;25.35;44.81;96116.47;4985669;28;24978;-71
2022/07/31 08:21:54;;;;;;;2.38;1.23;;;;;;;25.20;42.83;96105.84;4988569;28;24847;-71
2022/07/31 08:24:21;;;;;;;2.10;1.20;;;;;;;25.65;43.38;96113.84;4986220;28;24460;-72
2022/07/31 08:29:36;;;;;;;7.55;1.45;;;;;;;25.99;41.86;96108.88;4967383;28;24547;-72
2022/07/31 08:32:05;;;;;;;1.45;0.90;;;;;;;26.19;39.48;96106.47;4987702;28;24441;-72
2022/07/31 08:34:31;;;;;;;2.03;0.90;;;;;;;26.60;40.46;96115.75;4982345;28;24441;-72
2022/07/31 08:36:58;;;;;;;1.80;1.05;;;;;;;26.44;38.47;96106.97;4984103;28;24816;-72
2022/07/31 08:39:24;;;;;;;5.63;1.67;;;;;;;26.00;38.93;96105.22;4987670;28;25030;-72
2022/07/31 08:41:51;;;;;;;1.85;1.05;;;;;;;25.90;39.22;96101.19;4981525;28;24442;-72
2022/07/31 08:44:17;;;;;;;5.00;1.38;;;;;;;26.28;38.47;96102.69;4983384;28;24440;-72
2022/07/31 08:46:45;;;;;;;3.20;1.15;;;;;;;26.61;37.63;96107.59;4975952;28;24433;-72
2022/07/31 08:49:16;;;;;;;3.20;1.20;;;;;;;25.92;38.79;96096.50;4990621;28;24916;-72
2022/07/31 08:51:44;;;;;;;6.15;1.20;;;;;;;25.85;38.51;96090.31;4983629;28;24433;-72
2022/07/31 08:54:11;;;;;;;2.22;1.27;;;;;;;25.97;38.57;96102.91;4989059;28;24444;-72
2022/07/31 08:56:38;;;;;;;6.10;1.27;;;;;;;25.50;39.04;96106.72;4992775;28;24830;-72
2022/07/31 08:59:05;;;;;;;2.55;1.23;;;;;;;25.71;38.43;96100.69;4992243;28;24919;-72
2022/07/31 09:01:34;;;;;;;1.80;1.02;;;;;;;25.88;37.82;96090.75;4992628;28;24795;-72
2022/07/31 09:04:00;;;;;;;2.78;1.42;;;;;;;26.05;38.19;96096.69;4991966;28;24448;-72
2022/07/31 09:06:28;;;;;;;2.35;1.45;;;;;;;26.37;38.00;96092.81;4990097;28;24433;-72
2022/07/31 09:08:55;;;;;;;5.82;1.10;;;;;;;26.52;37.08;96098.94;4978763;28;25010;-72
2022/07/31 09:11:23;;;;;;;2.17;1.20;;;;;;;26.88;37.17;96089.25;4975110;28;24436;-72
2022/07/31 09:13:54;;;;;;;3.15;1.27;;;;;;;26.97;37.38;96094.25;4979411;28;24856;-72
2022/07/31 09:16:20;;;;;;;3.97;1.40;;;;;;;26.72;36.79;96093.81;4992226;28;24440;-72
2022/07/31 09:18:55;;;;;;;4.30;1.15;;;;;;;27.02;36.66;96085.72;4991858;28;24476;-72
2022/07/31 09:21:21;;;;;;;5.38;1.40;;;;;;;26.52;36.58;96084.81;4992405;28;24528;-71
2022/07/31 09:23:50;;;;;;;1.90;1.15;;;;;;;26.79;36.67;96089.38;4991603;28;24445;-72
2022/07/31 09:26:16;;;;;;;2.75;1.20;;;;;;;26.65;37.25;96081.47;4992192;28;24470;-71
2022/07/31 09:28:45;;;;;;;2.28;1.15;;;;;;;25.91;37.99;96084.25;4983831;28;24548;-72
2022/07/31 09:31:12;;;;;;;2.03;1.20;;;;;;;25.99;37.94;96087.66;4992050;28;24436;-72
2022/07/31 09:33:42;;;;;;;9.35;1.20;;;;;;;25.98;38.70;96090.47;4989863;28;24863;-71
2022/07/31 09:36:09;;;;;;;3.25;1.20;;;;;;;25.96;37.73;96095.16;4981647;28;24474;-71
2022/07/31 09:38:38;;;;;;;2.47;1.00;;;;;;;26.32;38.30;96084.56;4988662;28;24429;-72
2022/07/31 09:41:10;;;;;;;2.33;1.25;;;;;;;26.55;37.22;96087.13;4989608;28;24432;-72
2022/07/31 09:43:38;;;;;;;2.90;1.50;;;;;;;26.34;37.88;96087.03;4991154;28;24834;-71
2022/07/31 09:46:06;;;;;;;2.53;1.30;;;;;;;26.26;37.65;96086.13;4991511;28;24440;-72
2022/07/31 09:48:33;;;;;;;3.45;1.30;;;;;;;25.88;38.60;96077.47;4990713;28;24851;-72
2022/07/31 09:51:02;;;;;;;2.03;1.30;;;;;;;25.94;38.70;96086.53;4991115;28;24432;-72
2022/07/31 09:53:39;;;;;;;2.42;0.90;;;;;;;25.85;38.72;96080.53;4983819;28;24437;-72
2022/07/31 09:56:07;;;;;;;4.00;1.13;;;;;;;26.20;38.14;96081.56;4976015;28;24437;-72
2022/07/31 09:58:34;;;;;;;1.88;1.30;;;;;;;26.71;37.15;96078.06;4987487;28;24435;-73
2022/07/31 10:01:02;;;;;;;2.03;1.10;;;;;;;26.93;36.92;96078.91;4983383;28;24854;-73
2022/07/31 10:03:29;;;;;;;2.55;1.13;;;;;;;27.42;36.04;96062.94;4990951;28;24440;-73
2022/07/31 10:05:58;;;;;;;2.03;1.10;;;;;;;27.26;35.91;96060.59;4990755;28;24448;-72
2022/07/31 10:08:25;;;;;;;2.33;1.20;;;;;;;27.12;36.12;96064.97;4984478;28;24457;-72
2022/07/31 10:10:52;;;;;;;2.00;1.30;;;;;;;27.26;36.55;96069.38;4990073;28;24437;-72
2022/07/31 10:13:20;;;;;;;4.65;1.70;;;;;;;26.98;37.33;96069.31;4990910;28;24444;-72
2022/07/31 10:15:53;;;;;;;1.52;1.13;;;;;;;26.54;37.23;96066.84;4987137;28;24516;-72
2022/07/31 10:18:22;;;;;;;3.05;1.30;;;;;;;26.33;37.74;96074.75;4985587;28;24985;-72
2022/07/31 10:20:52;;;;;;;4.13;1.23;;;;;;;26.26;37.94;96067.56;4984289;28;24823;-71
2022/07/31 10:23:22;;;;;;;3.28;1.40;;;;;;;26.15;37.91;96067.22;4985349;28;24536;-73
2022/07/31 10:25:51;;;;;;;2.60;1.05;;;;;;;26.12;38.30;96064.94;4978857;28;24440;-74
2022/07/31 10:28:19;;;;;;;3.20;1.40;;;;;;;26.03;38.26;96064.19;4978977;28;24453;-74
2022/07/31 10:30:46;;;;;;;2.08;1.10;;;;;;;26.13;37.72;96069.22;4987865;28;24429;-74
2022/07/31 10:33:14;;;;;;;4.15;1.35;;;;;;;26.17;37.89;96075.81;4986111;28;24989;-78
2022/07/31 10:35:44;;;;;;;2.38;1.30;;;;;;;26.12;38.48;96073.72;4986582;28;24700;-73
2022/07/31 10:38:15;;;;;;;4.63;1.40;;;;;;;26.06;38.53;96069.94;4981015;28;24484;-73
2022/07/31 10:40:49;;;;;;;3.60;1.50;;;;;;;26.32;38.85;96060.66;4980794;28;21303;-73
2022/07/31 10:43:23;;;;;;;5.25;1.55;;;;;;;26.16;37.85;96059.06;4986319;28;24449;-73
2022/07/31 10:45:51;;;;;;;3.40;1.10;;;;;;;26.26;38.14;96064.91;4990450;28;24926;-74
2022/07/31 10:48:19;;;;;;;2.63;1.30;;;;;;;26.18;38.24;96046.44;4987606;28;24452;-73
2022/07/31 10:50:47;;;;;;;5.10;1.50;;;;;;;26.18;38.44;96049.09;4986258;28;24973;-73
2022/07/31 10:53:15;;;;;;;2.33;1.40;;;;;;;26.11;37.79;96050.03;4990333;28;24491;-72
2022/07/31 10:55:42;;;;;;;2.70;1.42;;;;;;;26.12;37.90;96051.66;4989862;28;24807;-74
2022/07/31 10:58:10;;;;;;;3.95;1.35;;;;;;;26.15;38.11;96046.81;4984163;28;24433;-73
2022/07/31 11:00:37;;;;;;;1.40;1.05;;;;;;;26.19;38.66;96042.75;4982159;28;24445;-73
2022/07/31 11:03:15;;;;;;;1.60;1.30;;;;;;;26.39;38.19;96047.47;4989864;28;24533;-73
2022/07/31 11:05:54;;;;;;;3.53;1.53;;;;;;;26.87;37.29;96045.91;4990246;28;24533;-74
2022/07/31 11:08:21;;;;;;;2.35;1.45;;;;;;;26.85;36.75;96032.03;4982870;28;24547;-73
2022/07/31 11:10:52;;;;;;;4.90;1.50;;;;;;;27.16;36.73;96023.69;4988309;28;24429;-74
2022/07/31 11:13:19;;;;;;;2.08;1.30;;;;;;;27.51;36.61;96015.72;4990246;28;24544;-73
2022/07/31 11:15:46;;;;;;;5.40;1.77;;;;;;;27.47;35.47;96017.13;4988837;28;24483;-73
2022/07/31 11:18:13;;;;;;;2.92;1.40;;;;;;;27.69;34.84;96023.19;4982110;28;24437;-74
2022/07/31 11:20:45;;;;;;;3.15;1.60;;;;;;;27.13;35.90;96020.59;4982376;28;24430;-73
2022/07/31 11:23:15;;;;;;;1.77;1.30;;;;;;;26.90;36.39;96018.97;4983049;28;24445;-73
2022/07/31 11:25:43;;;;;;;2.67;1.30;;;;;;;27.14;36.48;96017.72;4981269;28;24449;-73
2022/07/31 11:28:11;;;;;;;4.80;1.30;;;;;;;27.32;36.34;96019.09;4984424;28;24447;-73
2022/07/31 11:30:51;;;;;;;2.35;1.15;;;;;;;27.77;35.29;96011.59;4987783;28;24448;-73
2022/07/31 11:33:28;;;;;;;1.90;1.27;;;;;;;27.92;34.81;96014.94;4985282;28;24448;-73
2022/07/31 11:35:55;;;;;;;3.28;1.58;;;;;;;27.89;34.88;96013.50;4987033;28;24472;-73
2022/07/31 11:38:28;;;;;;;2.75;1.60;;;;;;;27.81;34.99;96018.16;4987451;28;24445;-73
2022/07/31 11:40:55;;;;;;;1.40;1.10;;;;;;;27.76;34.80;96017.94;4988556;28;25086;-73
2022/07/31 11:43:21;;;;;;;2.72;1.38;;;;;;;27.41;34.78;96015.28;4986139;28;24545;-72